馬祖南竿航空站 - ATIS

METAR RCFG 201100Z 04015KT 9999 FEW016 BKN035 BKN060 20/15 Q1021 NOSIG RMK MAX WND 21KT 03019KT/R21 04018KT/NJL A3017(O)=

站台狀態:Online
最後更新:2018-10-20 23:00:02